Time;durP1;ratioP1;P1;durP2;ratioP2;P2;SDS_P1;SDS_P2;PMS_P1;PMS_P2;Temp;Humidity;BMP_temperature;BMP_pressure;BME280_temperature;BME280_humidity;BME280_pressure;Samples;Min_cycle;Max_cycle;Signal;HPM_P1;HPM_P2
2021/11/21 00:00:16;;;;;;;11.45;5.40;;;9.70;94.00;;;;;;5064527;28;20113;-59
2021/11/21 00:02:43;;;;;;;12.55;5.80;;;9.80;94.10;;;;;;5063719;28;20110;-59
2021/11/21 00:05:12;;;;;;;12.45;5.22;;;9.80;94.10;;;;;;5063265;28;20049;-61
2021/11/21 00:07:38;;;;;;;13.63;5.93;;;9.80;94.10;;;;;;5063753;28;20052;-60
2021/11/21 00:10:06;;;;;;;7.65;4.63;;;9.70;94.00;;;;;;5062449;28;20283;-60
2021/11/21 00:12:34;;;;;;;11.00;4.70;;;9.70;94.10;;;;;;5063349;28;20083;-61
2021/11/21 00:15:02;;;;;;;10.65;4.80;;;9.70;94.10;;;;;;5063790;28;20080;-61
2021/11/21 00:17:32;;;;;;;12.55;5.72;;;9.70;94.10;;;;;;5063449;28;20132;-59
2021/11/21 00:19:59;;;;;;;13.10;4.88;;;9.70;94.00;;;;;;5064075;28;20049;-58
2021/11/21 00:22:26;;;;;;;9.70;4.28;;;10.00;94.10;;;;;;5066135;28;20139;-59
2021/11/21 00:24:53;;;;;;;7.82;4.30;;;9.80;94.00;;;;;;5067686;28;20045;-59
2021/11/21 00:27:21;;;;;;;11.68;5.13;;;9.70;93.90;;;;;;5057110;28;20090;-60
2021/11/21 00:29:50;;;;;;;9.68;5.18;;;9.70;94.20;;;;;;5067478;28;20538;-59
2021/11/21 00:32:17;;;;;;;10.32;5.07;;;9.70;94.00;;;;;;5067622;28;20573;-59
2021/11/21 00:34:44;;;;;;;11.00;4.80;;;9.70;94.00;;;;;;5067451;28;20365;-59
2021/11/21 00:37:10;;;;;;;8.57;4.80;;;9.70;93.80;;;;;;5066595;28;20083;-59
2021/11/21 00:39:40;;;;;;;7.82;4.45;;;9.70;94.00;;;;;;5065746;28;20044;-59
2021/11/21 00:42:08;;;;;;;8.63;4.53;;;9.70;94.00;;;;;;5067166;28;20117;-59
2021/11/21 00:44:34;;;;;;;11.90;5.43;;;9.70;93.90;;;;;;5066723;28;20064;-59
2021/11/21 00:47:01;;;;;;;12.65;4.47;;;9.70;93.90;;;;;;5066857;28;20143;-59
2021/11/21 00:49:28;;;;;;;9.97;5.07;;;9.70;93.90;;;;;;4716297;28;10000497;-59
2021/11/21 00:51:55;;;;;;;9.65;3.95;;;9.60;93.90;;;;;;5069292;28;20384;-59
2021/11/21 00:54:39;;;;;;;6.63;3.95;;;9.60;93.90;;;;;;5068848;28;20060;-57
2021/11/21 00:57:06;;;;;;;;;;;9.60;93.90;;;;;;5069425;28;20110;-59
2021/11/21 00:59:33;;;;;;;7.75;4.03;;;9.60;94.10;;;;;;5069711;28;20034;-58
2021/11/21 01:02:01;;;;;;;12.43;4.70;;;9.50;94.00;;;;;;5070187;28;20128;-59
2021/11/21 01:04:29;;;;;;;7.97;4.25;;;9.60;94.10;;;;;;5068860;28;20307;-58
2021/11/21 01:06:56;;;;;;;11.25;4.43;;;9.50;94.10;;;;;;5069677;28;20052;-60
2021/11/21 01:09:24;;;;;;;11.60;5.00;;;9.60;94.10;;;;;;5068793;28;20094;-59
2021/11/21 01:11:51;;;;;;;11.68;4.28;;;9.60;94.10;;;;;;5069799;28;20057;-59
2021/11/21 01:14:18;;;;;;;13.10;4.95;;;9.60;94.00;;;;;;5067912;28;20048;-60
2021/11/21 01:16:44;;;;;;;9.73;4.07;;;9.60;94.00;;;;;;5069317;28;20087;-59
2021/11/21 01:19:11;;;;;;;10.38;4.13;;;9.60;94.00;;;;;;5068522;28;20037;-59
2021/11/21 01:21:38;;;;;;;11.02;4.45;;;9.60;94.00;;;;;;5067266;28;20135;-58
2021/11/21 01:24:05;;;;;;;12.43;4.18;;;9.50;94.00;;;;;;5068380;28;20559;-58
2021/11/21 01:26:32;;;;;;;8.02;3.63;;;9.50;94.00;;;;;;5068356;28;20110;-58
2021/11/21 01:28:58;;;;;;;6.57;4.35;;;9.50;94.00;;;;;;5067648;28;20571;-58
2021/11/21 01:31:25;;;;;;;9.07;4.05;;;9.50;94.00;;;;;;5069796;28;20084;-59
2021/11/21 01:33:52;;;;;;;10.25;3.53;;;9.50;94.00;;;;;;5069222;28;20076;-58
2021/11/21 01:36:19;;;;;;;5.53;3.30;;;9.50;94.10;;;;;;5069944;28;20118;-58
2021/11/21 01:38:46;;;;;;;6.68;4.22;;;9.50;94.10;;;;;;5069504;28;20114;-59
2021/11/21 01:41:13;;;;;;;8.48;4.47;;;9.50;94.10;;;;;;5069169;28;20171;-57
2021/11/21 01:43:40;;;;;;;14.45;3.85;;;9.50;94.10;;;;;;5069785;28;20123;-59
2021/11/21 01:46:07;;;;;;;6.03;3.42;;;9.50;94.10;;;;;;5069128;28;20135;-59
2021/11/21 01:48:34;;;;;;;10.02;3.92;;;9.50;94.10;;;;;;5069546;28;20131;-59
2021/11/21 01:51:06;;;;;;;7.63;3.38;;;9.50;94.10;;;;;;5068318;28;20080;-59
2021/11/21 01:53:33;;;;;;;5.82;3.47;;;9.50;94.40;;;;;;5068055;28;20076;-58
2021/11/21 01:55:59;;;;;;;16.55;4.00;;;9.50;94.00;;;;;;5069423;28;20080;-58
2021/11/21 01:58:26;;;;;;;11.30;3.55;;;9.50;94.00;;;;;;5069756;28;20045;-59
2021/11/21 02:00:53;;;;;;;10.70;3.58;;;9.50;93.90;;;;;;5067551;28;20499;-59
2021/11/21 02:03:20;;;;;;;6.72;3.80;;;9.50;93.90;;;;;;5067936;28;20070;-58
2021/11/21 02:05:48;;;;;;;5.55;3.05;;;9.50;93.90;;;;;;5069330;28;20391;-58
2021/11/21 02:08:14;;;;;;;9.73;3.67;;;9.60;93.90;;;;;;5069397;28;20324;-59
2021/11/21 02:10:41;;;;;;;8.27;3.28;;;9.60;93.70;;;;;;5050678;28;20080;-59
2021/11/21 02:13:09;;;;;;;6.15;3.17;;;9.60;93.70;;;;;;5068733;28;20072;-59
2021/11/21 02:15:36;;;;;;;8.32;2.83;;;9.60;93.50;;;;;;5069042;28;20555;-58
2021/11/21 02:18:04;;;;;;;9.57;2.60;;;9.70;93.30;;;;;;5065041;28;20044;-58
2021/11/21 02:20:33;;;;;;;8.25;2.45;;;9.70;93.40;;;;;;5067909;28;20101;-58
2021/11/21 02:23:04;;;;;;;5.75;2.25;;;9.70;93.20;;;;;;5067760;28;20044;-58
2021/11/21 02:25:31;;;;;;;8.40;2.25;;;9.80;92.80;;;;;;5050792;28;20044;-57
2021/11/21 02:27:57;;;;;;;7.60;2.38;;;9.70;92.70;;;;;;5067394;28;20224;-58
2021/11/21 02:30:24;;;;;;;14.63;3.28;;;9.80;92.80;;;;;;5068739;28;20087;-58
2021/11/21 02:32:52;;;;;;;6.85;1.88;;;9.80;92.20;;;;;;5068262;28;20075;-58
2021/11/21 02:35:19;;;;;;;10.95;2.00;;;9.80;92.20;;;;;;5068828;28;20759;-59
2021/11/21 02:37:46;;;;;;;10.00;2.42;;;9.70;92.30;;;;;;5068167;28;20114;-58
2021/11/21 02:40:13;;;;;;;7.63;1.80;;;9.70;92.10;;;;;;5068508;28;20044;-58
2021/11/21 02:42:40;;;;;;;6.55;1.63;;;9.70;92.00;;;;;;5064610;28;20132;-59
2021/11/21 02:45:09;;;;;;;8.52;1.77;;;9.70;92.20;;;;;;5068015;28;20116;-58
2021/11/21 02:47:36;;;;;;;10.40;2.10;;;9.70;91.90;;;;;;5069581;28;20090;-59
2021/11/21 02:50:08;;;;;;;9.45;1.70;;;9.70;92.40;;;;;;4722773;27;10000637;-59
2021/11/21 02:52:36;;;;;;;7.53;1.53;;;9.70;91.80;;;;;;5071269;28;20053;-58
2021/11/21 02:55:03;;;;;;;11.02;2.17;;;9.70;91.70;;;;;;5066078;28;20084;-58
2021/11/21 02:57:29;;;;;;;9.32;1.95;;;9.60;92.00;;;;;;5066467;28;20146;-57
2021/11/21 02:59:56;;;;;;;8.50;1.85;;;9.70;91.70;;;;;;5066791;28;20083;-58
2021/11/21 03:02:23;;;;;;;5.22;2.13;;;9.60;91.80;;;;;;5066428;28;20056;-57
2021/11/21 03:04:51;;;;;;;9.25;1.60;;;9.60;91.80;;;;;;5067696;28;20045;-58
2021/11/21 03:07:18;;;;;;;7.05;1.85;;;9.60;91.90;;;;;;5066862;28;20044;-59
2021/11/21 03:09:49;;;;;;;11.95;1.65;;;9.50;91.70;;;;;;5059999;28;20098;-59
2021/11/21 03:12:18;;;;;;;8.77;3.30;;;9.50;91.20;;;;;;5067491;28;20603;-58
2021/11/21 03:14:45;;;;;;;8.48;2.33;;;9.40;90.90;;;;;;5067757;28;20082;-58
2021/11/21 03:17:12;;;;;;;8.27;2.00;;;9.50;91.70;;;;;;5067778;28;20416;-58
2021/11/21 03:19:39;;;;;;;6.10;2.17;;;9.40;91.70;;;;;;5064492;28;20118;-58
2021/11/21 03:22:06;;;;;;;10.38;1.48;;;9.40;91.70;;;;;;5067886;28;20080;-58
2021/11/21 03:24:33;;;;;;;15.27;1.92;;;9.30;91.20;;;;;;5067501;28;20076;-57
2021/11/21 03:26:59;;;;;;;12.60;3.08;;;9.30;91.60;;;;;;5066471;28;20135;-58
2021/11/21 03:29:26;;;;;;;6.30;1.58;;;9.30;91.50;;;;;;5067586;28;20045;-58
2021/11/21 03:31:53;;;;;;;15.00;2.15;;;9.30;91.40;;;;;;5066135;28;20084;-59
2021/11/21 03:34:20;;;;;;;9.32;2.00;;;9.30;91.40;;;;;;5068011;28;20123;-59
2021/11/21 03:36:47;;;;;;;6.10;1.65;;;9.20;91.10;;;;;;5065813;28;20080;-59
2021/11/21 03:39:13;;;;;;;8.18;1.73;;;9.20;91.20;;;;;;5066889;28;20083;-59
2021/11/21 03:41:40;;;;;;;10.25;1.67;;;9.20;91.40;;;;;;5067045;28;20075;-59
2021/11/21 03:44:07;;;;;;;7.38;1.70;;;9.10;91.40;;;;;;5048520;28;20665;-57
2021/11/21 03:46:35;;;;;;;9.15;1.83;;;9.10;91.40;;;;;;5066445;28;20121;-59
2021/11/21 03:49:02;;;;;;;13.35;3.17;;;9.10;91.30;;;;;;5066816;28;20076;-59
2021/11/21 03:51:29;;;;;;;10.50;1.98;;;9.10;91.30;;;;;;5066574;28;20143;-60
2021/11/21 03:53:56;;;;;;;10.48;2.25;;;9.00;91.40;;;;;;5062978;28;20140;-57
2021/11/21 03:56:23;;;;;;;9.95;1.58;;;8.90;91.20;;;;;;5066888;28;20479;-59
2021/11/21 03:58:50;;;;;;;12.60;2.28;;;8.90;91.50;;;;;;5066511;28;20078;-57
2021/11/21 04:01:16;;;;;;;5.35;1.35;;;8.80;91.20;;;;;;5058625;28;20098;-58
2021/11/21 04:03:45;;;;;;;13.07;4.60;;;8.80;91.40;;;;;;5050247;28;20056;-58
2021/11/21 04:06:12;;;;;;;12.60;1.77;;;8.70;91.40;;;;;;5063393;28;20191;-58
2021/11/21 04:08:40;;;;;;;8.57;2.05;;;8.70;91.30;;;;;;5066797;28;20511;-58
2021/11/21 04:11:06;;;;;;;9.63;2.67;;;8.60;91.10;;;;;;5066158;28;20041;-58
2021/11/21 04:13:33;;;;;;;14.10;1.58;;;8.50;91.60;;;;;;5066768;28;20132;-58
2021/11/21 04:16:00;;;;;;;12.43;2.20;;;8.60;91.30;;;;;;5066443;28;20079;-58
2021/11/21 04:18:27;;;;;;;10.73;1.77;;;8.50;91.20;;;;;;5067554;28;20461;-59
2021/11/21 04:20:54;;;;;;;10.43;2.13;;;8.40;91.20;;;;;;5067064;28;20345;-59
2021/11/21 04:23:21;;;;;;;12.98;2.88;;;8.50;91.30;;;;;;5067125;28;20040;-59
2021/11/21 04:25:48;;;;;;;10.27;1.83;;;8.40;91.30;;;;;;5066529;28;20049;-58
2021/11/21 04:28:14;;;;;;;12.93;1.73;;;8.40;91.20;;;;;;5064531;28;20502;-57
2021/11/21 04:30:41;;;;;;;13.77;2.03;;;8.40;91.40;;;;;;5065820;28;20068;-58
2021/11/21 04:33:08;;;;;;;9.15;2.45;;;8.30;91.30;;;;;;5065034;28;20045;-58
2021/11/21 04:35:35;;;;;;;11.15;2.38;;;8.30;91.30;;;;;;5065053;28;20256;-58
2021/11/21 04:38:02;;;;;;;10.77;1.40;;;8.20;91.20;;;;;;5067116;28;20044;-62
2021/11/21 04:40:28;;;;;;;8.65;1.73;;;8.10;91.10;;;;;;5065231;28;21264;-58
2021/11/21 04:42:55;;;;;;;12.07;2.22;;;8.10;91.50;;;;;;5067175;28;20048;-61
2021/11/21 04:45:22;;;;;;;9.77;1.42;;;8.10;91.40;;;;;;5065166;28;20056;-59
2021/11/21 04:47:49;;;;;;;11.63;2.50;;;8.10;91.30;;;;;;5066818;28;20043;-59
2021/11/21 04:50:16;;;;;;;13.10;1.73;;;8.10;91.00;;;;;;5066184;28;20075;-57
2021/11/21 04:52:43;;;;;;;15.07;2.28;;;8.00;91.30;;;;;;5064587;28;20056;-58
2021/11/21 04:55:10;;;;;;;9.35;1.70;;;8.00;91.20;;;;;;5032224;28;20044;-59
2021/11/21 04:57:40;;;;;;;11.23;2.72;;;7.90;91.30;;;;;;5064675;28;20087;-59
2021/11/21 05:00:10;;;;;;;12.43;1.85;;;7.90;91.30;;;;;;5066584;28;20473;-58
2021/11/21 05:02:40;;;;;;;9.05;2.45;;;7.90;91.10;;;;;;5065893;28;20052;-58
2021/11/21 05:05:08;;;;;;;8.52;1.80;;;7.90;91.30;;;;;;5066505;28;20124;-59
2021/11/21 05:07:35;;;;;;;13.98;1.63;;;7.90;91.20;;;;;;5066808;28;20068;-58
2021/11/21 05:10:03;;;;;;;6.88;1.48;;;7.90;91.30;;;;;;5068870;28;20052;-59
2021/11/21 05:12:30;;;;;;;11.63;1.38;;;7.80;91.30;;;;;;5069395;28;20567;-58
2021/11/21 05:14:59;;;;;;;12.90;1.77;;;7.80;91.30;;;;;;5069752;28;20534;-57
2021/11/21 05:17:26;;;;;;;11.18;2.58;;;7.70;91.30;;;;;;5069587;28;20547;-58
2021/11/21 05:19:53;;;;;;;6.30;2.00;;;7.70;91.30;;;;;;5069431;28;20110;-57
2021/11/21 05:22:20;;;;;;;11.20;2.30;;;7.70;91.40;;;;;;5069315;28;20492;-58
2021/11/21 05:24:46;;;;;;;12.45;1.55;;;7.70;91.50;;;;;;5069697;28;20292;-58
2021/11/21 05:27:13;;;;;;;10.18;2.25;;;7.70;91.50;;;;;;5068916;28;20101;-58
2021/11/21 05:29:40;;;;;;;17.95;1.80;;;7.60;91.50;;;;;;5068447;28;20084;-58
2021/11/21 05:32:07;;;;;;;8.73;1.92;;;7.60;91.60;;;;;;5069096;28;20567;-57
2021/11/21 05:34:34;;;;;;;14.20;2.35;;;7.50;91.70;;;;;;5062828;28;20415;-58
2021/11/21 05:37:02;;;;;;;5.55;1.55;;;7.40;91.70;;;;;;5068644;28;20131;-58
2021/11/21 05:39:30;;;;;;;16.00;1.95;;;7.40;91.90;;;;;;5065730;28;20144;-58
2021/11/21 05:41:56;;;;;;;11.85;2.30;;;7.40;91.90;;;;;;5067189;28;20102;-59
2021/11/21 05:44:24;;;;;;;12.13;2.60;;;7.40;91.90;;;;;;5068466;28;20056;-58
2021/11/21 05:46:50;;;;;;;31.33;3.90;;;7.30;91.80;;;;;;5069708;28;20483;-57
2021/11/21 05:49:17;;;;;;;15.73;3.17;;;7.30;91.90;;;;;;5070859;28;20106;-60
2021/11/21 05:51:44;;;;;;;10.90;1.73;;;7.30;91.90;;;;;;5061779;28;20052;-59
2021/11/21 05:54:11;;;;;;;7.88;1.70;;;7.30;91.90;;;;;;5067708;28;20099;-58
2021/11/21 05:56:37;;;;;;;13.05;2.20;;;7.30;91.90;;;;;;5068933;28;20048;-59
2021/11/21 05:59:04;;;;;;;9.07;1.90;;;7.30;91.80;;;;;;5067638;28;20036;-58
2021/11/21 06:01:31;;;;;;;14.32;2.00;;;7.30;91.80;;;;;;5068558;28;20468;-58
2021/11/21 06:03:58;;;;;;;15.13;1.98;;;7.30;91.70;;;;;;5068255;28;20463;-57
2021/11/21 06:06:25;;;;;;;6.15;1.42;;;7.30;91.80;;;;;;5068873;28;20131;-59
2021/11/21 06:08:52;;;;;;;7.55;1.63;;;7.30;91.80;;;;;;5066984;28;20106;-57
2021/11/21 06:11:18;;;;;;;8.40;2.05;;;7.30;91.70;;;;;;5068406;28;20314;-57
2021/11/21 06:13:45;;;;;;;7.95;1.88;;;7.20;91.70;;;;;;5066747;28;20131;-57
2021/11/21 06:16:12;;;;;;;6.65;1.85;;;7.20;91.70;;;;;;5067098;28;20098;-59
2021/11/21 06:18:39;;;;;;;8.23;1.67;;;7.20;91.70;;;;;;5050083;28;20084;-57
2021/11/21 06:21:06;;;;;;;12.07;2.10;;;7.30;91.50;;;;;;5068129;28;20098;-56
2021/11/21 06:23:34;;;;;;;6.25;1.70;;;7.20;91.70;;;;;;5067908;28;20045;-57
2021/11/21 06:26:02;;;;;;;10.70;3.83;;;7.10;91.60;;;;;;5067865;28;20087;-58
2021/11/21 06:28:29;;;;;;;9.73;1.73;;;7.10;91.60;;;;;;5060373;28;20472;-58
2021/11/21 06:30:55;;;;;;;7.45;1.67;;;7.20;91.60;;;;;;5067523;28;20090;-58
2021/11/21 06:33:22;;;;;;;6.80;1.23;;;7.20;91.50;;;;;;5066146;28;20439;-58
2021/11/21 06:35:49;;;;;;;6.18;1.30;;;7.20;91.50;;;;;;5067636;28;20105;-58
2021/11/21 06:38:17;;;;;;;13.15;1.83;;;7.30;91.50;;;;;;5067892;28;20459;-58
2021/11/21 06:40:45;;;;;;;9.93;1.52;;;7.10;91.50;;;;;;5068046;28;20051;-57
2021/11/21 06:43:12;;;;;;;6.95;1.80;;;7.20;91.50;;;;;;5067986;28;20076;-57
2021/11/21 06:45:38;;;;;;;12.05;1.60;;;7.10;91.60;;;;;;5067491;28;20102;-58
2021/11/21 06:48:10;;;;;;;7.57;1.33;;;7.00;91.50;;;;;;5068249;28;20488;-59
2021/11/21 06:50:37;;;;;;;10.18;1.63;;;7.00;91.60;;;;;;5068740;28;20068;-55
2021/11/21 06:53:04;;;;;;;9.73;1.55;;;6.90;91.50;;;;;;5067641;28;20048;-57
2021/11/21 06:55:31;;;;;;;9.55;1.90;;;6.90;91.50;;;;;;5067289;28;20045;-57
2021/11/21 06:57:58;;;;;;;7.18;1.45;;;6.90;91.50;;;;;;5066268;28;20473;-57
2021/11/21 07:00:24;;;;;;;11.82;1.30;;;6.80;91.60;;;;;;5067213;28;20076;-59
2021/11/21 07:02:51;;;;;;;12.70;1.70;;;6.80;91.70;;;;;;5063394;28;20053;-58
2021/11/21 07:05:18;;;;;;;11.18;2.85;;;6.80;91.50;;;;;;5064966;28;20560;-59
2021/11/21 07:07:45;;;;;;;6.50;1.35;;;6.80;91.40;;;;;;5066380;28;20123;-59
2021/11/21 07:10:12;;;;;;;3.47;1.17;;;6.80;91.50;;;;;;5067035;28;20567;-63
2021/11/21 07:12:39;;;;;;;10.35;2.22;;;6.80;91.10;;;;;;5066925;28;20287;-58
2021/11/21 07:15:14;;;;;;;12.38;4.22;;;6.70;91.50;;;;;;5066475;28;20079;-61
2021/11/21 07:17:41;;;;;;;8.43;1.35;;;6.70;91.50;;;;;;5069465;28;20056;-59
2021/11/21 07:20:15;;;;;;;9.73;2.20;;;6.70;91.50;;;;;;5063905;28;20060;-60
2021/11/21 07:22:46;;;;;;;6.43;1.33;;;6.70;91.50;;;;;;5067678;28;20073;-58
2021/11/21 07:25:13;;;;;;;10.25;1.63;;;6.60;91.50;;;;;;5066937;28;20036;-58
2021/11/21 07:27:42;;;;;;;13.48;1.58;;;6.60;91.60;;;;;;5066409;28;20139;-61
2021/11/21 07:30:13;;;;;;;3.10;1.15;;;6.60;91.60;;;;;;5066787;28;20567;-57
2021/11/21 07:32:40;;;;;;;7.57;1.55;;;6.60;91.60;;;;;;5065939;28;20048;-57
2021/11/21 07:35:07;;;;;;;5.65;1.20;;;6.60;91.50;;;;;;5066589;28;20133;-57
2021/11/21 07:37:34;;;;;;;6.03;2.00;;;6.50;91.50;;;;;;5066245;28;20132;-58
2021/11/21 07:40:01;;;;;;;11.05;2.63;;;6.50;91.60;;;;;;5066582;28;20080;-58
2021/11/21 07:42:28;;;;;;;7.97;3.38;;;6.40;91.70;;;;;;5063714;28;20056;-58
2021/11/21 07:44:54;;;;;;;9.10;2.88;;;6.40;91.60;;;;;;5065858;28;20080;-58
2021/11/21 07:47:21;;;;;;;8.32;1.20;;;6.50;91.60;;;;;;5066117;28;20054;-57
2021/11/21 07:49:48;;;;;;;5.90;1.45;;;6.50;91.50;;;;;;5066533;28;20072;-58
2021/11/21 07:52:15;;;;;;;4.40;1.70;;;6.40;91.50;;;;;;5066140;28;20123;-58
2021/11/21 07:54:43;;;;;;;8.30;1.90;;;6.40;91.50;;;;;;5066508;28;20095;-58
2021/11/21 07:57:10;;;;;;;6.63;1.60;;;6.40;91.50;;;;;;5059036;28;20072;-57
2021/11/21 07:59:37;;;;;;;9.30;1.52;;;6.40;91.50;;;;;;5067044;28;20067;-61
2021/11/21 08:02:04;;;;;;;4.93;1.83;;;6.40;91.60;;;;;;5066057;28;20140;-59
2021/11/21 08:04:31;;;;;;;7.35;1.20;;;6.40;91.50;;;;;;5066201;28;20052;-59
2021/11/21 08:06:58;;;;;;;13.55;2.72;;;6.40;91.40;;;;;;5065950;28;21257;-58
2021/11/21 08:09:25;;;;;;;7.50;1.77;;;6.40;91.40;;;;;;5066699;28;20076;-59
2021/11/21 08:11:51;;;;;;;3.80;1.50;;;6.40;91.40;;;;;;5066175;28;20051;-57
2021/11/21 08:14:18;;;;;;;11.20;1.52;;;6.40;91.40;;;;;;5066460;28;20119;-58
2021/11/21 08:16:45;;;;;;;11.68;1.48;;;6.40;91.30;;;;;;5066067;28;20133;-58
2021/11/21 08:19:12;;;;;;;6.30;1.42;;;6.40;91.30;;;;;;5065848;28;20102;-59
2021/11/21 08:21:39;;;;;;;8.85;1.85;;;6.40;91.20;;;;;;5066344;28;20044;-57
2021/11/21 08:24:07;;;;;;;8.63;1.73;;;6.40;91.00;;;;;;5065455;28;20171;-57
2021/11/21 08:26:35;;;;;;;10.20;1.38;;;6.50;91.10;;;;;;5065257;28;20127;-57
2021/11/21 08:29:03;;;;;;;5.93;1.50;;;6.50;91.10;;;;;;5065177;28;20135;-57
2021/11/21 08:31:50;;;;;;;4.40;1.10;;;6.70;91.30;;;;;;5064326;28;20037;-58
2021/11/21 08:34:17;;;;;;;16.48;3.60;;;6.50;91.10;;;;;;5064837;28;20241;-56
2021/11/21 08:36:44;;;;;;;8.88;1.35;;;6.50;90.90;;;;;;5063452;28;20041;-57
2021/11/21 08:39:11;;;;;;;6.80;1.50;;;6.50;90.90;;;;;;5065058;28;20079;-57
2021/11/21 08:41:37;;;;;;;6.55;1.00;;;6.60;90.90;;;;;;5065167;28;20072;-56
2021/11/21 08:44:04;;;;;;;4.30;1.08;;;6.60;90.90;;;;;;5068491;28;20158;-57
2021/11/21 08:46:31;;;;;;;13.05;2.53;;;6.60;90.80;;;;;;5068832;28;20113;-59
2021/11/21 08:48:58;;;;;;;9.40;2.15;;;6.60;90.80;;;;;;5067044;28;20514;-58
2021/11/21 08:51:25;;;;;;;8.75;1.48;;;6.60;90.70;;;;;;5070310;28;20307;-61
2021/11/21 08:53:52;;;;;;;10.15;0.82;;;6.60;90.70;;;;;;5068126;28;20094;-56
2021/11/21 08:56:19;;;;;;;13.25;1.48;;;6.70;90.50;;;;;;5068692;28;20285;-58
2021/11/21 08:58:45;;;;;;;9.35;1.52;;;6.70;90.80;;;;;;5066922;28;20123;-58
2021/11/21 09:01:12;;;;;;;13.98;1.90;;;6.60;90.70;;;;;;5069446;28;20045;-56
2021/11/21 09:03:39;;;;;;;8.10;1.15;;;6.60;90.60;;;;;;5069687;28;20058;-60
2021/11/21 09:06:06;;;;;;;11.63;1.55;;;6.70;90.30;;;;;;5069536;28;20040;-56
2021/11/21 09:08:33;;;;;;;8.70;2.13;;;6.70;90.20;;;;;;5069895;28;20079;-55
2021/11/21 09:11:00;;;;;;;9.75;1.48;;;6.70;90.30;;;;;;4714437;27;10000066;-57
2021/11/21 09:13:31;;;;;;;5.80;1.05;;;6.70;90.40;;;;;;5066707;28;20143;-58
2021/11/21 09:15:58;;;;;;;4.35;1.20;;;6.80;90.20;;;;;;5065890;28;20048;-57
2021/11/21 09:18:26;;;;;;;8.82;1.17;;;6.80;89.80;;;;;;5066148;28;20530;-56
2021/11/21 09:20:53;;;;;;;4.55;1.13;;;6.80;90.30;;;;;;5065803;28;20132;-55
2021/11/21 09:23:22;;;;;;;5.78;1.35;;;7.00;90.20;;;;;;5065706;28;20056;-59
2021/11/21 09:25:50;;;;;;;13.63;2.35;;;7.00;90.10;;;;;;5065907;28;20582;-60
2021/11/21 09:28:16;;;;;;;5.28;1.30;;;7.00;90.10;;;;;;5065953;28;20579;-61
2021/11/21 09:30:43;;;;;;;3.88;1.00;;;7.10;89.20;;;;;;5065443;28;20124;-57
2021/11/21 09:33:10;;;;;;;10.50;3.55;;;7.00;90.10;;;;;;5065872;28;20060;-56
2021/11/21 09:35:38;;;;;;;10.50;1.90;;;7.10;90.30;;;;;;5064315;28;20118;-57
2021/11/21 09:38:06;;;;;;;6.40;1.60;;;7.10;90.00;;;;;;5062875;28;20307;-57
2021/11/21 09:40:33;;;;;;;5.85;1.70;;;7.20;90.10;;;;;;5064514;28;20139;-58
2021/11/21 09:43:00;;;;;;;7.40;1.13;;;7.10;89.50;;;;;;5065336;28;20827;-55
2021/11/21 09:45:27;;;;;;;2.25;1.20;;;7.10;90.00;;;;;;5064472;28;20056;-59
2021/11/21 09:47:55;;;;;;;7.90;1.33;;;7.10;89.70;;;;;;5062430;28;20043;-57
2021/11/21 09:50:28;;;;;;;8.10;1.40;;;7.20;90.00;;;;;;5063723;28;20052;-56
2021/11/21 09:52:55;;;;;;;3.22;1.00;;;7.20;89.60;;;;;;5063581;28;20098;-57
2021/11/21 09:55:22;;;;;;;4.82;1.20;;;7.30;90.00;;;;;;5060652;28;20163;-57
2021/11/21 09:57:49;;;;;;;3.88;1.42;;;7.30;90.00;;;;;;5061892;28;20052;-56
2021/11/21 10:00:17;;;;;;;3.95;1.08;;;7.30;89.90;;;;;;5062308;28;20071;-54
2021/11/21 10:02:48;;;;;;;4.15;1.08;;;7.40;89.80;;;;;;5060456;28;20087;-59
2021/11/21 10:05:25;;;;;;;4.25;1.05;;;7.40;88.60;;;;;;5063107;28;20074;-58
2021/11/21 10:08:04;;;;;;;15.60;1.85;;;7.40;89.30;;;;;;5064195;28;20052;-56
2021/11/21 10:10:56;;;;;;;10.02;2.17;;;7.50;89.50;;;;;;5064153;28;20139;-59
2021/11/21 10:13:30;;;;;;;5.72;1.63;;;7.60;89.50;;;;;;5064100;28;20151;-57
2021/11/21 10:15:58;;;;;;;6.00;1.42;;;7.60;88.70;;;;;;5065259;28;20040;-57
2021/11/21 10:18:25;;;;;;;6.85;1.25;;;7.60;89.50;;;;;;5063665;28;20152;-58
2021/11/21 10:20:52;;;;;;;6.40;1.00;;;7.70;89.20;;;;;;5063610;28;20131;-59
2021/11/21 10:23:19;;;;;;;9.30;1.63;;;7.70;89.60;;;;;;5064532;28;20049;-60
2021/11/21 10:25:51;;;;;;;9.00;1.30;;;7.80;89.20;;;;;;5064675;28;20098;-60
2021/11/21 10:28:29;;;;;;;6.45;1.42;;;7.70;89.10;;;;;;5064782;28;20053;-60
2021/11/21 10:31:09;;;;;;;6.65;2.85;;;7.80;89.00;;;;;;5063438;28;20041;-60
2021/11/21 10:33:41;;;;;;;3.25;1.17;;;7.80;89.60;;;;;;5063801;28;21561;-60
2021/11/21 10:36:20;;;;;;;4.53;1.08;;;7.80;89.00;;;;;;5064213;28;20074;-59
2021/11/21 10:38:57;;;;;;;3.65;1.33;;;7.80;88.90;;;;;;5061352;28;20641;-60
2021/11/21 10:41:32;;;;;;;5.68;1.08;;;7.80;88.20;;;;;;5063508;28;20145;-60
2021/11/21 10:44:08;;;;;;;2.83;0.85;;;7.90;88.70;;;;;;5061082;28;20087;-58
2021/11/21 10:46:45;;;;;;;5.05;1.30;;;7.80;89.50;;;;;;5063651;28;20045;-60
2021/11/21 10:49:19;;;;;;;4.72;1.15;;;7.90;87.30;;;;;;5063916;28;20133;-58
2021/11/21 10:51:50;;;;;;;9.20;1.13;;;7.90;89.20;;;;;;5064908;28;20126;-58
2021/11/21 10:54:31;;;;;;;7.60;1.52;;;7.90;89.60;;;;;;5065265;28;20048;-56
2021/11/21 10:56:59;;;;;;;5.88;1.20;;;8.00;88.80;;;;;;5063682;28;20044;-58
2021/11/21 10:59:53;;;;;;;5.63;1.10;;;8.00;89.30;;;;;;5065113;28;20076;-56
2021/11/21 11:02:20;;;;;;;5.32;1.30;;;8.00;87.30;;;;;;5055794;28;20079;-56
2021/11/21 11:05:06;;;;;;;3.08;1.00;;;8.10;89.30;;;;;;5064064;28;20288;-56
2021/11/21 11:07:42;;;;;;;4.55;1.17;;;8.10;87.90;;;;;;5061014;28;20083;-56
2021/11/21 11:10:14;;;;;;;4.20;1.15;;;8.10;89.20;;;;;;5064024;28;20052;-55
2021/11/21 11:12:42;;;;;;;2.88;1.08;;;8.20;88.70;;;;;;5064400;28;20044;-53
2021/11/21 11:15:09;;;;;;;4.57;1.17;;;8.10;89.40;;;;;;5064805;28;20753;-54
2021/11/21 11:17:37;;;;;;;6.38;1.08;;;8.00;88.70;;;;;;5065753;28;20558;-55
2021/11/21 11:20:06;;;;;;;3.75;0.82;;;8.10;89.50;;;;;;5066377;28;20463;-54
2021/11/21 11:22:33;;;;;;;5.93;1.48;;;8.10;89.80;;;;;;5066938;28;20051;-56
2021/11/21 11:25:01;;;;;;;8.75;1.10;;;8.20;89.90;;;;;;5066593;28;20102;-55
2021/11/21 11:27:43;;;;;;;10.07;1.60;;;8.20;89.40;;;;;;5063828;28;20083;-55
2021/11/21 11:30:10;;;;;;;10.63;1.20;;;8.20;89.00;;;;;;5064796;28;20048;-54
2021/11/21 11:32:41;;;;;;;6.07;1.50;;;8.20;89.10;;;;;;5063577;28;20143;-54
2021/11/21 11:35:19;;;;;;;5.07;1.23;;;8.30;88.50;;;;;;5063429;28;20051;-55
2021/11/21 11:37:51;;;;;;;6.07;1.55;;;8.20;88.80;;;;;;5063609;28;20131;-55
2021/11/21 11:40:31;;;;;;;13.77;1.90;;;8.20;89.40;;;;;;5063558;28;20052;-55
2021/11/21 11:43:23;;;;;;;7.55;1.38;;;8.20;88.10;;;;;;5063647;28;20080;-55
2021/11/21 11:45:57;;;;;;;7.32;2.53;;;8.30;88.40;;;;;;5064551;28;20080;-57
2021/11/21 11:48:30;;;;;;;;;;;8.30;89.20;;;;;;5062298;28;20049;-56
2021/11/21 11:50:58;;;;;;;3.33;0.73;;;8.30;88.20;;;;;;5066051;28;20234;-55
2021/11/21 11:53:35;;;;;;;1.77;0.93;;;8.40;88.90;;;;;;5065333;28;20091;-57
2021/11/21 11:56:21;;;;;;;3.83;1.27;;;8.40;87.60;;;;;;5065928;28;20075;-56
2021/11/21 11:59:04;;;;;;;7.30;1.92;;;8.40;86.90;;;;;;5062299;28;20048;-57
2021/11/21 12:01:38;;;;;;;5.60;0.95;;;8.40;86.60;;;;;;5066824;28;20068;-55
2021/11/21 12:04:17;;;;;;;4.80;1.05;;;8.40;88.20;;;;;;5066545;28;20044;-54
2021/11/21 12:06:48;;;;;;;6.82;1.35;;;8.40;87.50;;;;;;5064511;28;20045;-54
2021/11/21 12:09:33;;;;;;;5.15;1.30;;;8.40;88.50;;;;;;5066900;28;20041;-55
2021/11/21 12:12:07;;;;;;;12.05;1.27;;;8.50;87.50;;;;;;5066048;28;20079;-55
2021/11/21 12:14:34;;;;;;;4.88;1.38;;;8.50;88.10;;;;;;5066206;28;20633;-56
2021/11/21 12:17:16;;;;;;;7.47;1.52;;;8.50;88.80;;;;;;5067507;28;20049;-56
2021/11/21 12:19:47;;;;;;;9.90;1.20;;;8.60;87.20;;;;;;5070054;28;20444;-56
2021/11/21 12:22:29;;;;;;;8.13;1.50;;;8.60;87.10;;;;;;5069839;28;20122;-55
2021/11/21 12:25:07;;;;;;;4.65;1.40;;;8.60;85.90;;;;;;5070126;28;20052;-54
2021/11/21 12:27:41;;;;;;;10.40;1.95;;;8.60;87.80;;;;;;5069808;28;20063;-55
2021/11/21 12:30:18;;;;;;;6.03;1.08;;;8.70;87.50;;;;;;5068758;28;20106;-56
2021/11/21 12:32:50;;;;;;;8.85;1.85;;;8.70;87.20;;;;;;5069943;28;20135;-55
2021/11/21 12:35:39;;;;;;;5.70;1.50;;;8.80;85.60;;;;;;5069950;28;20076;-55
2021/11/21 12:38:06;;;;;;;8.45;1.77;;;8.70;83.70;;;;;;5068941;28;20132;-54
2021/11/21 12:40:44;;;;;;;9.52;1.83;;;8.70;87.00;;;;;;5069832;28;20091;-56
2021/11/21 12:43:15;;;;;;;7.97;1.48;;;8.80;86.20;;;;;;5069619;28;20074;-56
2021/11/21 12:45:44;;;;;;;7.60;1.52;;;8.90;84.00;;;;;;5065704;28;20503;-55
2021/11/21 12:48:12;;;;;;;5.97;1.73;;;8.90;86.40;;;;;;4715482;28;9999837;-53
2021/11/21 12:50:44;;;;;;;8.60;1.77;;;8.80;85.10;;;;;;5067802;28;20056;-56
2021/11/21 12:53:20;;;;;;;5.60;2.72;;;8.80;86.60;;;;;;5069437;28;20052;-55
2021/11/21 12:55:52;;;;;;;10.90;2.30;;;8.80;84.40;;;;;;5062740;28;20040;-55
2021/11/21 12:58:26;;;;;;;17.38;2.20;;;8.80;84.40;;;;;;5069655;28;20131;-55
2021/11/21 13:01:03;;;;;;;;;;;8.80;84.90;;;;;;5069333;28;20080;-58